createdAt,value
2018-07-03T00:01:03.293Z,100700.05
2018-07-03T00:02:06.728Z,100700.05
2018-07-03T00:03:10.178Z,100698.66
2018-07-03T00:04:13.550Z,100700.27
2018-07-03T00:05:16.996Z,100695.08
2018-07-03T00:06:20.602Z,100696.47
2018-07-03T00:07:24.146Z,100697.64
2018-07-03T00:08:27.540Z,100700.05
2018-07-03T00:09:30.977Z,100695.66
2018-07-03T00:10:34.401Z,100694.27
2018-07-03T00:11:37.828Z,100695.88
2018-07-03T00:12:41.270Z,100697.27
2018-07-03T00:13:44.764Z,100700.86
2018-07-03T00:14:48.166Z,100697.27
2018-07-03T00:15:51.589Z,100695.88
2018-07-03T00:17:00.230Z,100695.30
2018-07-03T00:18:03.770Z,100689.73
2018-07-03T00:19:07.206Z,100693.91
2018-07-03T00:20:10.665Z,100686.15
2018-07-03T00:21:14.100Z,100690.32
2018-07-03T00:22:17.899Z,100693.09
2018-07-03T00:23:21.334Z,100701.44
2018-07-03T00:24:24.779Z,100718.34
2018-07-03T00:25:28.239Z,100716.37
2018-07-03T00:26:31.642Z,100724.13
2018-07-03T00:27:35.184Z,100724.13
2018-07-03T00:28:38.606Z,100715.19
2018-07-03T00:29:42.124Z,100711.83
2018-07-03T00:30:45.611Z,100707.66
2018-07-03T00:31:49.022Z,100711.83
2018-07-03T00:32:52.412Z,100713.66
2018-07-03T00:33:55.809Z,100719.80
2018-07-03T00:34:59.197Z,100716.43
2018-07-03T00:36:02.646Z,100720.02
2018-07-03T00:37:06.119Z,100717.82
2018-07-03T00:38:09.506Z,100723.60
2018-07-03T00:39:12.908Z,100716.64
2018-07-03T00:40:16.323Z,100716.86
2018-07-03T00:41:19.755Z,100716.86
2018-07-03T00:42:23.153Z,100718.72
2018-07-03T00:43:26.544Z,100715.69
2018-07-03T00:44:29.942Z,100721.25
2018-07-03T00:45:33.363Z,100715.35
2018-07-03T00:46:36.783Z,100717.33
2018-07-03T00:47:40.233Z,100719.19
2018-07-03T00:48:43.632Z,100717.20
2018-07-03T00:49:47.082Z,100715.81
2018-07-03T00:50:50.494Z,100711.86
2018-07-03T00:51:54.019Z,100713.84
2018-07-03T00:52:57.460Z,100712.66
2018-07-03T00:54:00.874Z,100715.45
2018-07-03T00:55:04.505Z,100711.27
2018-07-03T00:56:08.052Z,100711.27
2018-07-03T00:57:11.463Z,100714.05
2018-07-03T00:58:14.880Z,100713.69
2018-07-03T00:59:18.276Z,100712.30
2018-07-03T01:00:30.234Z,100708.13
2018-07-03T01:01:33.640Z,100706.14
2018-07-03T01:02:37.029Z,100708.13
2018-07-03T01:03:40.436Z,100703.58
2018-07-03T01:04:43.848Z,100699.19
2018-07-03T01:05:47.258Z,100706.14
2018-07-03T01:06:50.686Z,100705.92
2018-07-03T01:07:54.151Z,100704.32
2018-07-03T01:08:57.573Z,100702.93
2018-07-03T01:10:01.076Z,100702.13
2018-07-03T01:11:04.510Z,100703.89
2018-07-03T01:12:07.932Z,100696.69
2018-07-03T01:13:11.348Z,100696.69
2018-07-03T01:14:14.773Z,100695.64
2018-07-03T01:15:18.169Z,100693.69
2018-07-03T01:16:21.585Z,100693.44
2018-07-03T01:17:25.878Z,100690.66
2018-07-03T01:18:29.287Z,100703.17
2018-07-03T01:19:32.382Z,100700.17
2018-07-03T01:20:35.766Z,100702.16
2018-07-03T01:21:39.174Z,100699.38
2018-07-03T01:22:42.653Z,100703.77
2018-07-03T01:23:46.045Z,100709.91
2018-07-03T01:24:49.463Z,100699.38
2018-07-03T01:25:52.866Z,100699.96
2018-07-03T01:26:56.272Z,100708.30
2018-07-03T01:27:59.645Z,100705.30
2018-07-03T01:29:03.074Z,100706.70
2018-07-03T01:30:06.731Z,100705.89
2018-07-03T01:31:10.149Z,100708.89
2018-07-03T01:32:13.575Z,100701.35
2018-07-03T01:33:16.964Z,100711.89
2018-07-03T01:34:20.346Z,100706.11
2018-07-03T01:35:23.795Z,100704.94
2018-07-03T01:36:27.178Z,100706.33
2018-07-03T01:37:30.611Z,100706.70
2018-07-03T01:38:34.006Z,100705.30
2018-07-03T01:39:37.439Z,100704.13
2018-07-03T01:40:40.871Z,100706.11
2018-07-03T01:41:44.284Z,100707.87
2018-07-03T01:42:47.749Z,100701.72
2018-07-03T01:43:51.445Z,100703.11
2018-07-03T01:44:54.830Z,100705.30
2018-07-03T01:45:58.225Z,100711.67
2018-07-03T01:47:01.644Z,100712.84
2018-07-03T01:48:05.085Z,100708.09
2018-07-03T01:49:08.505Z,100702.53
2018-07-03T01:50:11.929Z,100706.70
2018-07-03T01:51:15.712Z,100699.75
2018-07-03T01:52:19.100Z,100706.70
2018-07-03T01:53:22.565Z,100705.30
2018-07-03T01:54:25.979Z,100706.11
2018-07-03T01:55:29.434Z,100700.12
2018-07-03T01:56:32.865Z,100704.28
2018-07-03T01:57:36.248Z,100706.70
2018-07-03T01:58:39.772Z,100704.50
2018-07-03T01:59:43.218Z,100708.30
2018-07-03T02:00:46.637Z,100703.33
2018-07-03T02:01:50.070Z,100704.13
2018-07-03T02:02:53.692Z,100709.91
2018-07-03T02:03:57.090Z,100705.74
2018-07-03T02:05:00.470Z,100710.72
2018-07-03T02:06:03.886Z,100708.16
2018-07-03T02:07:07.609Z,100709.79
2018-07-03T02:08:11.025Z,100705.37
2018-07-03T02:09:14.780Z,100702.03
2018-07-03T02:10:18.168Z,100707.81
2018-07-03T02:11:21.586Z,100705.03
2018-07-03T02:12:24.961Z,100703.64
2018-07-03T02:13:28.388Z,100705.03
2018-07-03T02:14:31.857Z,100702.84
2018-07-03T02:15:35.282Z,100703.64
2018-07-03T02:16:45.523Z,100702.25
2018-07-03T02:17:48.925Z,100702.25
2018-07-03T02:18:52.324Z,100705.62
2018-07-03T02:19:55.697Z,100702.84
2018-07-03T02:20:59.089Z,100694.49
2018-07-03T02:22:02.560Z,100693.69
2018-07-03T02:23:05.994Z,100695.30
2018-07-03T02:24:09.431Z,100688.13
2018-07-03T02:25:12.829Z,100685.09
2018-07-03T02:26:16.226Z,100692.05
2018-07-03T02:27:19.655Z,100688.13
2018-07-03T02:28:23.120Z,100687.66
2018-07-03T02:29:26.498Z,100692.05
2018-07-03T02:30:29.920Z,100689.05
2018-07-03T02:31:33.358Z,100690.66
2018-07-03T02:32:36.924Z,100694.03
2018-07-03T02:33:40.311Z,100687.88
2018-07-03T02:34:43.713Z,100681.30
2018-07-03T02:35:47.082Z,100683.28
2018-07-03T02:36:50.484Z,100689.05
2018-07-03T02:37:53.995Z,100688.84
2018-07-03T02:38:57.388Z,100689.42
2018-07-03T02:40:00.839Z,100686.05
2018-07-03T02:41:04.290Z,100694.40
2018-07-03T02:42:07.730Z,100689.05
2018-07-03T02:43:11.148Z,100698.78
2018-07-03T02:44:14.559Z,100697.77
2018-07-03T02:45:17.976Z,100691.62
2018-07-03T02:46:21.356Z,100692.20
2018-07-03T02:47:24.808Z,100696.97
2018-07-03T02:48:28.245Z,100697.77
2018-07-03T02:49:31.644Z,100696.97
2018-07-03T02:50:35.059Z,100686.42
2018-07-03T02:51:38.484Z,100687.02
2018-07-03T02:52:41.895Z,100695.58
2018-07-03T02:53:45.418Z,100686.21
2018-07-03T02:54:48.886Z,100692.36
2018-07-03T02:55:52.322Z,100690.97
2018-07-03T02:56:55.728Z,100692.36
2018-07-03T02:57:59.134Z,100696.31
2018-07-03T02:59:02.607Z,100689.36
2018-07-03T03:00:06.710Z,100691.92
2018-07-03T03:01:10.488Z,100693.91
2018-07-03T03:02:14.274Z,100700.64
2018-07-03T03:03:17.759Z,100697.86
2018-07-03T03:04:21.561Z,100698.45
2018-07-03T03:05:24.996Z,100695.45
2018-07-03T03:06:28.410Z,100701.37
2018-07-03T03:07:31.846Z,100702.98
2018-07-03T03:08:35.253Z,100699.40
2018-07-03T03:09:38.630Z,100699.19
2018-07-03T03:10:42.071Z,100698.97
2018-07-03T03:11:50.296Z,100697.33
2018-07-03T03:12:53.707Z,100700.58
2018-07-03T03:14:13.521Z,100698.37
2018-07-03T03:18:59.984Z,100697.58
2018-07-03T03:20:03.787Z,100698.16
2018-07-03T03:21:07.358Z,100693.16
2018-07-03T03:22:10.814Z,100694.80
2018-07-03T03:23:14.220Z,100689.58
2018-07-03T03:24:17.709Z,100694.55
2018-07-03T03:25:21.332Z,100695.72
2018-07-03T03:26:30.959Z,100685.77
2018-07-03T03:27:57.842Z,100687.16
2018-07-03T03:29:21.315Z,100691.33
2018-07-03T03:30:24.829Z,100688.77
2018-07-03T03:31:41.090Z,100689.73
2018-07-03T03:32:54.185Z,100690.31
2018-07-03T03:33:57.616Z,100683.95
2018-07-03T03:35:01.005Z,100683.95
2018-07-03T03:36:04.550Z,100680.37
2018-07-03T03:37:07.977Z,100681.17
2018-07-03T03:38:11.350Z,100681.76
2018-07-03T03:39:14.769Z,100678.98
2018-07-03T03:40:18.190Z,100681.76
2018-07-03T03:41:21.561Z,100686.52
2018-07-03T03:42:24.996Z,100681.54
2018-07-03T03:43:28.393Z,100678.54
2018-07-03T03:44:31.797Z,100684.69
2018-07-03T03:45:35.194Z,100673.57
2018-07-03T03:46:38.603Z,100680.73
2018-07-03T03:47:42.298Z,100679.12
2018-07-03T03:48:45.731Z,100674.95
2018-07-03T03:49:49.121Z,100679.93
2018-07-03T03:50:52.554Z,100675.17
2018-07-03T03:51:55.977Z,100680.15
2018-07-03T03:52:59.371Z,100679.56
2018-07-03T03:54:02.788Z,100679.12
2018-07-03T03:55:06.407Z,100685.70
2018-07-03T03:56:09.834Z,100685.13
2018-07-03T03:57:13.244Z,100686.73
2018-07-03T03:58:16.636Z,100689.14
2018-07-03T03:59:20.036Z,100689.14
2018-07-03T04:00:23.436Z,100688.55
2018-07-03T04:01:26.994Z,100688.55
2018-07-03T04:02:30.622Z,100696.52
2018-07-03T04:03:34.036Z,100696.52
2018-07-03T04:04:37.432Z,100693.16
2018-07-03T04:05:40.831Z,100699.55
2018-07-03T04:06:44.308Z,100695.38
2018-07-03T04:07:47.727Z,100700.36
2018-07-03T04:08:51.132Z,100698.72
2018-07-03T04:09:54.658Z,100703.84
2018-07-03T04:10:58.085Z,100695.50
2018-07-03T04:12:01.491Z,100705.82
2018-07-03T04:13:04.981Z,100704.80
2018-07-03T04:14:08.407Z,100703.62
2018-07-03T04:15:11.827Z,100707.58
2018-07-03T04:16:15.342Z,100704.80
2018-07-03T04:17:18.919Z,100701.59
2018-07-03T04:18:34.872Z,100707.15
2018-07-03T04:19:38.276Z,100709.70
2018-07-03T04:20:41.684Z,100708.91
2018-07-03T04:21:45.124Z,100706.93
2018-07-03T04:22:48.539Z,100713.30
2018-07-03T04:23:51.940Z,100708.91
2018-07-03T04:25:06.045Z,100712.48
2018-07-03T04:26:30.281Z,100712.70
2018-07-03T04:27:33.711Z,100709.34
2018-07-03T04:28:37.125Z,100717.69
2018-07-03T04:29:40.538Z,100714.09
2018-07-03T04:30:43.927Z,100717.69
2018-07-03T04:31:47.340Z,100714.69
2018-07-03T04:32:50.751Z,100721.63
2018-07-03T04:33:54.148Z,100718.27
2018-07-03T04:34:57.544Z,100723.02
2018-07-03T04:36:01.118Z,100720.24
2018-07-03T04:37:04.886Z,100716.66
2018-07-03T04:38:08.262Z,100720.83
2018-07-03T04:39:11.659Z,100725.59
2018-07-03T04:40:15.049Z,100726.39
2018-07-03T04:41:18.502Z,100726.17
2018-07-03T04:42:21.904Z,100725.15
2018-07-03T04:43:25.301Z,100722.38
2018-07-03T04:44:29.750Z,100726.11
2018-07-03T04:45:33.287Z,100729.69
2018-07-03T04:46:36.732Z,100723.11
2018-07-03T04:47:40.158Z,100732.84
2018-07-03T04:48:43.721Z,100732.03
2018-07-03T04:49:47.139Z,100730.64
2018-07-03T04:50:50.552Z,100734.01
2018-07-03T04:51:54.028Z,100736.79
2018-07-03T04:53:13.984Z,100735.40
2018-07-03T04:54:17.423Z,100735.73
2018-07-03T04:55:20.859Z,100737.12
2018-07-03T04:56:24.332Z,100732.73
2018-07-03T04:57:27.752Z,100741.08
2018-07-03T04:58:31.170Z,100736.10
2018-07-03T04:59:52.134Z,100737.71
2018-07-03T05:00:55.877Z,100734.93
2018-07-03T05:01:59.744Z,100730.77
2018-07-03T05:03:03.148Z,100730.55
2018-07-03T05:04:06.603Z,100729.73
2018-07-03T05:05:30.121Z,100734.12
2018-07-03T05:06:33.526Z,100738.88
2018-07-03T05:07:36.941Z,100736.69
2018-07-03T05:08:40.368Z,100743.64
2018-07-03T05:09:51.765Z,100743.64
2018-07-03T05:10:55.984Z,100745.25
2018-07-03T05:11:59.394Z,100745.03
2018-07-03T05:13:02.833Z,100743.64
2018-07-03T05:14:06.652Z,100751.98
2018-07-03T05:15:10.134Z,100741.81
2018-07-03T05:16:13.538Z,100743.78
2018-07-03T05:17:16.968Z,100751.54
2018-07-03T05:18:20.371Z,100747.38
2018-07-03T05:19:23.813Z,100752.13
2018-07-03T05:20:27.272Z,100747.52
2018-07-03T05:21:30.676Z,100754.69
2018-07-03T05:22:34.667Z,100753.88
2018-07-03T05:23:41.830Z,100753.08
2018-07-03T05:24:45.821Z,100750.52
2018-07-03T05:25:54.238Z,100755.27
2018-07-03T05:26:57.845Z,100757.69
2018-07-03T05:28:01.276Z,100751.32
2018-07-03T05:29:04.781Z,100755.70
2018-07-03T05:30:08.500Z,100752.93
2018-07-03T05:31:12.294Z,100756.30
2018-07-03T05:32:15.903Z,100754.09
2018-07-03T05:33:21.961Z,100756.52
2018-07-03T05:34:25.395Z,100751.32
2018-07-03T05:35:29.021Z,100750.73
2018-07-03T05:36:32.451Z,100755.93
2018-07-03T05:37:36.263Z,100755.70
2018-07-03T05:38:40.861Z,100763.69
2018-07-03T05:39:45.182Z,100758.13
2018-07-03T05:40:48.952Z,100760.31
2018-07-03T05:41:52.860Z,100763.09
2018-07-03T05:42:56.656Z,100760.31
2018-07-03T05:44:00.166Z,100760.09
2018-07-03T05:45:03.878Z,100762.66
2018-07-03T05:46:07.323Z,100767.63
2018-07-03T05:47:11.218Z,100762.44
2018-07-03T05:48:16.174Z,100769.17
2018-07-03T05:49:20.301Z,100765.59
2018-07-03T05:50:23.772Z,100763.61
2018-07-03T05:51:27.190Z,100769.75
2018-07-03T05:52:31.334Z,100770.70
2018-07-03T05:53:34.811Z,100768.07
2018-07-03T05:54:38.238Z,100762.87
2018-07-03T05:55:41.691Z,100766.58
2018-07-03T05:56:45.116Z,100763.73
2018-07-03T05:57:51.286Z,100761.24
2018-07-03T05:59:01.041Z,100767.75
2018-07-03T06:00:04.921Z,100764.79
2018-07-03T06:01:08.339Z,100763.44
2018-07-03T06:02:17.168Z,100761.28
2018-07-03T06:09:02.121Z,100772.23
2018-07-03T06:10:05.848Z,100776.50
2018-07-03T06:11:09.228Z,100774.44
2018-07-03T06:12:12.650Z,100773.78
2018-07-03T06:13:16.088Z,100774.47
2018-07-03T06:14:19.548Z,100773.58
2018-07-03T06:15:22.934Z,100775.91
2018-07-03T06:16:26.359Z,100772.46
2018-07-03T06:17:29.899Z,100778.38
2018-07-03T06:18:33.269Z,100773.84
2018-07-03T06:19:36.880Z,100780.55
2018-07-03T06:20:40.422Z,100779.75
2018-07-03T06:21:43.894Z,100779.53
2018-07-03T06:22:47.493Z,100777.91
2018-07-03T06:23:51.021Z,100779.66
2018-07-03T06:24:54.446Z,100779.08
2018-07-03T06:25:57.985Z,100780.24
2018-07-03T06:27:01.380Z,100779.44
2018-07-03T06:28:04.854Z,100784.54
2018-07-03T06:29:08.316Z,100784.23
2018-07-03T06:30:11.669Z,100782.14
2018-07-03T06:31:15.134Z,100782.72
2018-07-03T06:32:18.544Z,100779.36
2018-07-03T06:37:21.672Z,100789.20
2018-07-03T06:38:25.116Z,100789.42
2018-07-03T06:39:33.463Z,100787.45
2018-07-03T06:40:36.962Z,100793.00
2018-07-03T06:41:40.690Z,100790.45
2018-07-03T06:42:44.076Z,100784.09
2018-07-03T06:43:47.502Z,100789.06
2018-07-03T06:44:50.931Z,100792.42
2018-07-03T06:45:54.345Z,100794.03
2018-07-03T06:47:06.582Z,100795.64
2018-07-03T06:48:15.617Z,100793.67
2018-07-03T06:49:24.918Z,100793.89
2018-07-03T06:50:28.455Z,100793.09
2018-07-03T06:51:32.123Z,100791.70
2018-07-03T06:52:35.849Z,100793.53
2018-07-03T06:53:39.464Z,100789.95
2018-07-03T06:54:42.935Z,100789.15
2018-07-03T06:55:46.378Z,100794.13
2018-07-03T06:56:49.852Z,100788.57
2018-07-03T06:57:53.491Z,100785.80
2018-07-03T06:58:58.089Z,100795.28
2018-07-03T07:00:01.564Z,100790.31
2018-07-03T07:01:05.086Z,100793.89
2018-07-03T07:02:08.682Z,100786.52
2018-07-03T07:03:12.091Z,100789.64
2018-07-03T07:04:15.867Z,100787.59
2018-07-03T07:05:19.690Z,100787.59
2018-07-03T07:06:23.138Z,100790.69
2018-07-03T07:07:26.635Z,100789.30
2018-07-03T07:08:30.996Z,100780.08
2018-07-03T07:09:34.502Z,100783.22
2018-07-03T07:10:37.936Z,100788.54
2018-07-03T07:11:41.384Z,100787.51
2018-07-03T07:12:45.050Z,100782.55
2018-07-03T07:13:48.495Z,100781.16
2018-07-03T07:14:52.038Z,100786.13
2018-07-03T07:15:55.438Z,100779.41
2018-07-03T07:16:58.828Z,100778.61
2018-07-03T07:18:03.152Z,100779.77
2018-07-03T07:19:06.597Z,100781.38
2018-07-03T07:20:10.157Z,100780.22
2018-07-03T07:21:13.562Z,100780.44
2018-07-03T07:22:16.980Z,100786.21
2018-07-03T07:23:20.467Z,100778.25
2018-07-03T07:24:23.828Z,100776.50
2018-07-03T07:25:27.292Z,100779.86
2018-07-03T07:26:31.276Z,100777.89
2018-07-03T07:27:34.774Z,100779.28
2018-07-03T07:28:38.333Z,100779.50
2018-07-03T07:29:41.756Z,100776.95
2018-07-03T07:30:45.149Z,100779.14
2018-07-03T07:31:48.551Z,100773.02
2018-07-03T07:32:51.956Z,100773.23
2018-07-03T07:33:55.353Z,100776.48
2018-07-03T07:34:58.758Z,100774.30
2018-07-03T07:36:02.250Z,100766.78
2018-07-03T07:37:06.630Z,100771.52
2018-07-03T07:38:11.232Z,100765.39
2018-07-03T07:39:14.955Z,100769.55
2018-07-03T07:40:18.369Z,100772.55
2018-07-03T07:41:21.769Z,100766.78
2018-07-03T07:42:25.170Z,100769.30
2018-07-03T07:43:29.242Z,100770.13
2018-07-03T07:44:32.641Z,100767.36
2018-07-03T07:45:36.122Z,100764.59
2018-07-03T07:46:39.531Z,100763.20
2018-07-03T07:47:42.975Z,100761.45
2018-07-03T07:48:46.398Z,100764.67
2018-07-03T07:49:50.036Z,100767.45
2018-07-03T07:50:53.508Z,100762.48
2018-07-03T07:51:56.916Z,100763.06
2018-07-03T07:53:00.462Z,100759.13
2018-07-03T07:54:03.900Z,100760.29
2018-07-03T07:55:07.415Z,100759.48
2018-07-03T07:56:10.868Z,100760.06
2018-07-03T07:57:14.509Z,100756.70
2018-07-03T07:58:18.037Z,100761.67
2018-07-03T07:59:21.653Z,100754.96
2018-07-03T08:00:25.137Z,100752.77
2018-07-03T08:01:28.554Z,100759.34
2018-07-03T08:02:32.165Z,100754.83
2018-07-03T08:03:35.829Z,100754.23
2018-07-03T08:04:39.329Z,100759.44
2018-07-03T08:05:42.913Z,100756.08
2018-07-03T08:06:46.458Z,100754.33
2018-07-03T08:07:49.859Z,100754.55
2018-07-03T08:08:53.493Z,100759.52
2018-07-03T08:09:56.940Z,100749.80
2018-07-03T08:11:00.419Z,100759.73
2018-07-03T08:12:04.225Z,100755.80
2018-07-03T08:13:07.674Z,100749.08
2018-07-03T08:14:11.150Z,100760.47
2018-07-03T08:15:14.563Z,100755.95
2018-07-03T08:16:17.992Z,100752.59
2018-07-03T08:17:21.438Z,100758.36
2018-07-03T08:18:24.987Z,100760.33
2018-07-03T08:19:28.429Z,100757.20
2018-07-03T08:20:31.860Z,100754.42
2018-07-03T08:21:35.246Z,100753.03
2018-07-03T08:22:38.672Z,100751.65
2018-07-03T08:23:42.064Z,100754.64
2018-07-03T08:24:45.445Z,100754.64
2018-07-03T08:25:48.825Z,100754.64
2018-07-03T08:26:52.224Z,100757.06
2018-07-03T08:27:55.604Z,100755.09
2018-07-03T08:28:59.056Z,100755.09
2018-07-03T08:30:02.437Z,100757.64
2018-07-03T08:31:05.867Z,100759.25
2018-07-03T08:32:09.295Z,100759.84
2018-07-03T08:33:13.917Z,100762.03
2018-07-03T08:34:17.321Z,100759.48
2018-07-03T08:35:20.720Z,100756.70
2018-07-03T08:36:24.122Z,100762.03
2018-07-03T08:37:27.573Z,100759.48
2018-07-03T08:38:34.112Z,100760.64
2018-07-03T08:39:37.535Z,100758.09
2018-07-03T08:40:43.289Z,100759.25
2018-07-03T08:41:46.766Z,100759.48
2018-07-03T08:42:50.196Z,100760.06
2018-07-03T08:43:53.736Z,100758.09
2018-07-03T08:44:57.157Z,100762.25
2018-07-03T08:46:00.647Z,100753.13
2018-07-03T08:47:04.084Z,100756.70
2018-07-03T08:48:07.481Z,100760.28
2018-07-03T08:49:26.628Z,100755.89
2018-07-03T08:50:35.371Z,100756.48
2018-07-03T08:51:39.515Z,100756.48
2018-07-03T08:52:42.866Z,100760.28
2018-07-03T08:53:46.290Z,100765.03
2018-07-03T08:54:49.708Z,100762.83
2018-07-03T08:55:53.125Z,100762.47
2018-07-03T08:56:56.549Z,100760.86
2018-07-03T08:58:00.016Z,100758.09
2018-07-03T08:59:03.524Z,100757.28
2018-07-03T09:00:07.781Z,100754.73
2018-07-03T09:01:11.202Z,100758.31
2018-07-03T09:02:14.650Z,100755.53
2018-07-03T09:03:18.045Z,100759.92
2018-07-03T09:04:21.472Z,100761.53
2018-07-03T09:05:24.860Z,100760.36
2018-07-03T09:06:28.306Z,100764.53
2018-07-03T09:07:31.736Z,100761.75
2018-07-03T09:08:35.137Z,100763.36
2018-07-03T09:09:38.675Z,100761.75
2018-07-03T09:10:42.091Z,100767.30
2018-07-03T09:11:45.474Z,100761.75
2018-07-03T09:12:48.987Z,100767.52
2018-07-03T09:13:52.433Z,100763.95
2018-07-03T09:14:55.845Z,100767.52
2018-07-03T09:15:59.240Z,100763.61
2018-07-03T09:17:09.808Z,100760.25
2018-07-03T09:18:13.249Z,100765.23
2018-07-03T09:19:16.684Z,100764.28
2018-07-03T09:20:20.165Z,100758.51
2018-07-03T09:21:23.566Z,100765.09
2018-07-03T09:22:27.039Z,100764.73
2018-07-03T09:23:30.463Z,100766.92
2018-07-03T09:24:33.880Z,100756.98
2018-07-03T09:25:37.280Z,100758.23
2018-07-03T09:26:40.680Z,100756.84
2018-07-03T09:27:44.074Z,100757.65
2018-07-03T09:28:47.494Z,100759.25
2018-07-03T09:29:50.989Z,100753.70
2018-07-03T09:30:54.497Z,100753.70
2018-07-03T09:31:57.968Z,100747.34
2018-07-03T09:33:01.375Z,100754.95
2018-07-03T09:34:04.903Z,100749.17
2018-07-03T09:35:08.323Z,100753.56
2018-07-03T09:36:11.767Z,100754.15
2018-07-03T09:37:15.237Z,100746.63
2018-07-03T09:38:18.695Z,100752.17
2018-07-03T09:39:23.148Z,100743.84
2018-07-03T09:40:26.591Z,100748.23
2018-07-03T09:41:30.067Z,100744.06
2018-07-03T09:42:33.552Z,100745.23
2018-07-03T09:43:36.989Z,100746.84
2018-07-03T09:44:40.396Z,100745.45
2018-07-03T09:45:43.926Z,100744.88
2018-07-03T09:46:47.383Z,100748.45
2018-07-03T09:47:50.838Z,100744.88
2018-07-03T09:48:54.308Z,100743.95
2018-07-03T09:49:57.694Z,100742.90
2018-07-03T09:51:01.104Z,100745.90
2018-07-03T09:52:04.672Z,100743.13
2018-07-03T09:53:08.093Z,100740.59
2018-07-03T09:54:11.686Z,100738.15
2018-07-03T09:55:15.119Z,100745.34
2018-07-03T09:56:18.653Z,100740.34
2018-07-03T09:57:22.070Z,100740.34
2018-07-03T09:58:25.450Z,100737.82
2018-07-03T09:59:29.004Z,100737.23
2018-07-03T10:00:37.828Z,100741.04
2018-07-03T10:01:41.261Z,100734.68
2018-07-03T10:02:44.665Z,100735.48
2018-07-03T10:03:48.372Z,100729.94
2018-07-03T10:04:51.802Z,100734.09
2018-07-03T10:05:58.083Z,100729.34
2018-07-03T10:07:01.637Z,100730.73
2018-07-03T10:08:05.096Z,100736.52
2018-07-03T10:09:10.258Z,100732.13
2018-07-03T10:10:13.676Z,100733.52
2018-07-03T10:11:17.082Z,100728.77
2018-07-03T10:12:20.532Z,100727.23
2018-07-03T10:13:24.070Z,100731.41
2018-07-03T10:14:27.464Z,100725.27
2018-07-03T10:15:30.931Z,100728.63
2018-07-03T10:16:34.362Z,100731.98
2018-07-03T10:17:37.811Z,100731.77
2018-07-03T10:18:41.256Z,100731.98
2018-07-03T10:19:45.573Z,100726.20
2018-07-03T10:20:48.964Z,100724.60
2018-07-03T10:21:52.364Z,100735.93
2018-07-03T10:22:55.793Z,100738.48
2018-07-03T10:23:59.300Z,100732.93
2018-07-03T10:25:02.674Z,100734.91
2018-07-03T10:26:07.523Z,100736.88
2018-07-03T10:27:10.925Z,100734.68
2018-07-03T10:28:14.378Z,100739.65
2018-07-03T10:29:17.802Z,100736.66
2018-07-03T10:30:21.264Z,100732.48
2018-07-03T10:31:24.719Z,100738.41
2018-07-03T10:32:28.156Z,100733.66
2018-07-03T10:33:31.655Z,100733.98
2018-07-03T10:34:35.118Z,100731.21
2018-07-03T10:35:38.513Z,100738.41
2018-07-03T10:36:41.933Z,100729.23
2018-07-03T10:37:45.326Z,100737.57
2018-07-03T10:38:48.742Z,100729.82
2018-07-03T10:39:52.144Z,100732.59
2018-07-03T10:40:55.544Z,100730.62
2018-07-03T10:41:58.922Z,100731.46
2018-07-03T10:43:02.600Z,100723.69
2018-07-03T10:44:06.415Z,100726.71
2018-07-03T10:45:09.876Z,100724.52
2018-07-03T10:46:13.287Z,100722.30
2018-07-03T10:47:16.880Z,100723.13
2018-07-03T10:48:20.302Z,100722.30
2018-07-03T10:49:23.742Z,100723.69
2018-07-03T10:50:27.182Z,100722.55
2018-07-03T10:51:30.680Z,100719.52
2018-07-03T10:52:34.058Z,100719.19
2018-07-03T10:53:37.449Z,100720.58
2018-07-03T10:54:41.100Z,100715.36
2018-07-03T10:55:44.514Z,100715.61
2018-07-03T10:56:47.886Z,100717.58
2018-07-03T10:57:51.360Z,100718.97
2018-07-03T10:58:54.983Z,100718.13
2018-07-03T10:59:58.534Z,100720.58
2018-07-03T11:01:02.004Z,100719.77
2018-07-03T11:02:05.440Z,100717.00
2018-07-03T11:03:08.901Z,100714.44
2018-07-03T11:04:12.308Z,100715.83
2018-07-03T11:05:15.712Z,100712.25
2018-07-03T11:06:19.154Z,100710.28
2018-07-03T11:07:22.699Z,100717.80
2018-07-03T11:08:26.200Z,100715.83
2018-07-03T11:09:42.979Z,100717.80
2018-07-03T11:10:46.497Z,100717.22
2018-07-03T11:11:49.945Z,100714.44
2018-07-03T11:12:53.444Z,100707.86
2018-07-03T11:13:56.899Z,100711.66
2018-07-03T11:15:00.410Z,100711.66
2018-07-03T11:16:03.827Z,100712.47
2018-07-03T11:17:07.238Z,100709.69
2018-07-03T11:18:10.668Z,100710.72
2018-07-03T11:19:14.083Z,100704.94
2018-07-03T11:20:17.590Z,100700.78
2018-07-03T11:21:20.965Z,100704.94
2018-07-03T11:22:24.389Z,100706.55
2018-07-03T11:23:27.798Z,100702.97
2018-07-03T11:24:31.232Z,100707.36
2018-07-03T11:25:34.679Z,100700.78
2018-07-03T11:26:38.116Z,100701.00
2018-07-03T11:27:41.568Z,100699.02
2018-07-03T11:28:44.961Z,100706.77
2018-07-03T11:29:48.377Z,100702.02
2018-07-03T11:30:51.781Z,100702.83
2018-07-03T11:31:55.239Z,100701.22
2018-07-03T11:32:58.672Z,100697.27
2018-07-03T11:34:02.090Z,100697.86
2018-07-03T11:35:05.540Z,100694.72
2018-07-03T11:36:08.958Z,100697.72
2018-07-03T11:37:12.427Z,100694.13
2018-07-03T11:38:15.844Z,100691.94
2018-07-03T11:39:19.303Z,100693.55
2018-07-03T11:40:22.722Z,100692.16
2018-07-03T11:41:26.179Z,100692.16
2018-07-03T11:42:29.561Z,100696.33
2018-07-03T11:43:33.002Z,100692.38
2018-07-03T11:44:36.427Z,100690.99
2018-07-03T11:45:39.942Z,100689.83
2018-07-03T11:46:43.647Z,100689.83
2018-07-03T11:47:47.070Z,100687.85
2018-07-03T11:48:50.468Z,100689.83
2018-07-03T11:49:54.051Z,100685.88
2018-07-03T11:50:57.508Z,100689.46
2018-07-03T11:52:00.982Z,100688.66
2018-07-03T11:53:04.450Z,100687.48
2018-07-03T11:54:08.009Z,100689.46
2018-07-03T11:55:11.476Z,100684.93
2018-07-03T11:56:14.944Z,100680.77
2018-07-03T11:57:18.482Z,100685.52
2018-07-03T11:58:22.149Z,100677.98
2018-07-03T11:59:25.612Z,100676.59
2018-07-03T12:00:29.186Z,100675.21
2018-07-03T12:01:50.962Z,100673.82
2018-07-03T12:02:54.380Z,100673.23
2018-07-03T12:04:03.896Z,100672.66
2018-07-03T12:05:07.831Z,100677.63
2018-07-03T12:06:11.296Z,100676.23
2018-07-03T12:07:14.748Z,100668.05
2018-07-03T12:08:18.197Z,100676.82
2018-07-03T12:09:21.620Z,100676.48
2018-07-03T12:10:25.128Z,100675.90
2018-07-03T12:11:28.522Z,100676.48
2018-07-03T12:12:31.981Z,100674.29
2018-07-03T12:13:35.434Z,100675.90
2018-07-03T12:14:38.891Z,100670.78
2018-07-03T12:15:42.313Z,100665.59
2018-07-03T12:16:45.773Z,100663.63
2018-07-03T12:17:49.223Z,100664.42
2018-07-03T12:18:58.825Z,100663.63
2018-07-03T12:20:02.342Z,100668.59
2018-07-03T12:21:06.000Z,100665.02
2018-07-03T12:22:09.425Z,100669.39
2018-07-03T12:23:13.189Z,100671.95
2018-07-03T12:24:16.621Z,100671.95